createdAt,value
2019-02-16T00:03:20.485Z,2.90
2019-02-16T00:08:24.012Z,2.10
2019-02-16T00:13:27.543Z,2.97
2019-02-16T00:18:31.088Z,2.93
2019-02-16T00:23:34.603Z,3.10
2019-02-16T00:28:38.123Z,2.77
2019-02-16T00:33:41.657Z,2.63
2019-02-16T00:38:44.937Z,2.60
2019-02-16T00:43:48.462Z,3.30
2019-02-16T00:48:51.987Z,3.00
2019-02-16T00:53:55.269Z,2.80
2019-02-16T00:58:58.556Z,3.50
2019-02-16T01:04:01.844Z,3.17
2019-02-16T01:09:07.099Z,2.90
2019-02-16T01:14:10.379Z,2.93
2019-02-16T01:19:13.656Z,2.97
2019-02-16T01:24:17.188Z,2.73
2019-02-16T01:29:20.474Z,2.97
2019-02-16T01:34:23.832Z,2.80
2019-02-16T01:39:27.402Z,2.63
2019-02-16T01:44:30.636Z,2.83
2019-02-16T01:49:34.174Z,3.03
2019-02-16T01:54:37.711Z,2.57
2019-02-16T01:59:41.232Z,2.83
2019-02-16T02:04:44.763Z,2.80
2019-02-16T02:09:48.305Z,2.67
2019-02-16T02:14:51.833Z,3.10
2019-02-16T02:19:55.362Z,2.67
2019-02-16T02:24:58.668Z,2.93
2019-02-16T02:30:02.188Z,3.50
2019-02-16T02:35:07.787Z,3.20
2019-02-16T02:40:11.313Z,3.07
2019-02-16T02:45:14.595Z,2.60
2019-02-16T02:50:17.876Z,2.47
2019-02-16T02:55:21.409Z,2.90
2019-02-16T03:00:24.945Z,3.37
2019-02-16T03:05:28.315Z,2.97
2019-02-16T03:10:31.603Z,2.67
2019-02-16T03:15:35.106Z,2.97
2019-02-16T03:20:38.389Z,2.63
2019-02-16T03:25:44.746Z,2.87
2019-02-16T03:30:51.450Z,3.00
2019-02-16T03:36:04.165Z,2.80
2019-02-16T03:41:07.442Z,2.73
2019-02-16T03:46:10.980Z,2.90
2019-02-16T03:51:14.496Z,3.07
2019-02-16T03:56:17.776Z,2.93
2019-02-16T04:01:21.347Z,3.30
2019-02-16T04:06:24.618Z,2.87
2019-02-16T04:11:27.891Z,3.00
2019-02-16T04:16:31.427Z,3.17
2019-02-16T04:21:34.958Z,2.97
2019-02-16T04:26:40.587Z,3.10
2019-02-16T04:31:43.500Z,3.30
2019-02-16T04:36:46.780Z,3.20
2019-02-16T04:41:50.230Z,3.07
2019-02-16T04:46:53.514Z,3.00
2019-02-16T04:51:56.789Z,3.13
2019-02-16T04:57:00.308Z,3.07
2019-02-16T05:02:03.658Z,3.10
2019-02-16T05:07:06.936Z,3.23
2019-02-16T05:12:10.456Z,3.23
2019-02-16T05:17:13.998Z,3.20
2019-02-16T05:22:17.514Z,3.10
2019-02-16T05:27:20.796Z,2.60
2019-02-16T05:32:24.329Z,2.93
2019-02-16T05:37:27.604Z,2.87
2019-02-16T05:42:30.882Z,2.57
2019-02-16T05:47:34.159Z,2.50
2019-02-16T05:52:37.431Z,2.87
2019-02-16T05:57:40.958Z,3.03
2019-02-16T06:02:44.230Z,3.50
2019-02-16T06:07:47.764Z,2.97
2019-02-16T06:12:51.042Z,3.10
2019-02-16T06:17:54.570Z,2.83
2019-02-16T06:23:04.386Z,2.60
2019-02-16T06:28:03.084Z,3.20
2019-02-16T06:33:06.388Z,2.57
2019-02-16T06:38:09.667Z,3.03
2019-02-16T06:43:12.943Z,3.00
2019-02-16T06:48:16.535Z,3.00
2019-02-16T06:53:19.808Z,3.17
2019-02-16T06:58:23.088Z,3.67
2019-02-16T07:03:26.597Z,3.70
2019-02-16T07:08:29.892Z,3.30
2019-02-16T07:13:33.160Z,3.50
2019-02-16T07:18:38.323Z,3.10
2019-02-16T07:23:41.603Z,3.27
2019-02-16T07:28:45.126Z,3.70
2019-02-16T07:33:48.657Z,2.90
2019-02-16T07:38:52.282Z,4.00
2019-02-16T07:43:57.200Z,2.53
2019-02-16T07:49:02.130Z,3.07
2019-02-16T07:54:23.267Z,3.03
2019-02-16T07:59:40.323Z,2.57
2019-02-16T08:04:48.387Z,3.17
2019-02-16T08:09:59.274Z,3.23
2019-02-16T08:15:04.433Z,3.10
2019-02-16T08:20:18.273Z,3.50
2019-02-16T08:25:26.099Z,3.37
2019-02-16T08:30:36.693Z,3.83
2019-02-16T08:35:41.607Z,3.13
2019-02-16T08:40:58.734Z,2.90
2019-02-16T08:46:03.892Z,3.20
2019-02-16T08:51:08.804Z,2.83
2019-02-16T08:56:22.492Z,2.93
2019-02-16T09:01:30.486Z,3.07
2019-02-16T09:06:52.216Z,2.73
2019-02-16T09:12:06.181Z,3.10
2019-02-16T09:17:13.191Z,3.10
2019-02-16T09:22:17.961Z,3.00
2019-02-16T09:27:37.978Z,2.90
2019-02-16T09:32:51.398Z,3.37
2019-02-16T09:37:56.254Z,3.07
2019-02-16T09:43:01.714Z,3.63
2019-02-16T09:48:23.085Z,3.53
2019-02-16T09:53:34.102Z,3.03
2019-02-16T09:58:42.382Z,4.03
2019-02-16T10:03:59.054Z,3.40
2019-02-16T10:09:04.225Z,3.87
2019-02-16T10:14:27.510Z,4.43
2019-02-16T10:19:32.669Z,4.20
2019-02-16T10:24:40.245Z,5.37
2019-02-16T10:30:01.079Z,4.53
2019-02-16T10:35:06.694Z,5.10
2019-02-16T10:40:17.046Z,4.07
2019-02-16T10:45:22.213Z,4.70
2019-02-16T10:50:27.136Z,5.60
2019-02-16T10:55:48.524Z,5.50
2019-02-16T11:01:05.442Z,5.33
2019-02-16T11:06:10.608Z,5.67
2019-02-16T11:11:30.258Z,5.63
2019-02-16T11:16:37.811Z,5.60
2019-02-16T11:21:42.743Z,6.57
2019-02-16T11:26:47.665Z,7.00
2019-02-16T11:32:02.143Z,7.23
2019-02-16T11:37:07.080Z,7.30
2019-02-16T11:42:12.008Z,7.77
2019-02-16T11:47:16.952Z,7.47
2019-02-16T11:52:24.585Z,7.10
2019-02-16T11:57:29.763Z,7.30
2019-02-16T12:02:39.816Z,6.67
2019-02-16T12:07:41.585Z,8.13
2019-02-16T12:12:58.685Z,7.00
2019-02-16T12:18:06.262Z,7.90
2019-02-16T12:23:11.191Z,7.50
2019-02-16T12:28:16.365Z,7.17
2019-02-16T12:33:27.407Z,7.67
2019-02-16T12:38:35.452Z,6.97
2019-02-16T12:43:52.371Z,7.67
2019-02-16T12:48:57.420Z,7.97
2019-02-16T12:54:05.496Z,8.33
2019-02-16T12:59:22.445Z,7.70
2019-02-16T13:04:30.605Z,7.33
2019-02-16T13:09:47.649Z,7.23
2019-02-16T13:14:55.479Z,7.20
2019-02-16T13:20:16.674Z,7.70
2019-02-16T13:25:30.724Z,7.30
2019-02-16T13:30:35.898Z,6.43
2019-02-16T13:35:41.077Z,6.53
2019-02-16T13:40:55.259Z,7.33
2019-02-16T13:46:03.253Z,7.67
2019-02-16T13:51:11.188Z,7.20
2019-02-16T13:56:16.130Z,6.60
2019-02-16T14:01:26.677Z,6.90
2019-02-16T14:06:37.703Z,6.73
2019-02-16T14:11:42.873Z,7.03
2019-02-16T14:16:48.036Z,6.53
2019-02-16T14:21:51.632Z,6.87
2019-02-16T14:26:55.185Z,6.80
2019-02-16T14:31:58.500Z,6.37
2019-02-16T14:37:03.663Z,7.50
2019-02-16T14:42:07.189Z,6.97
2019-02-16T14:47:10.717Z,7.40
2019-02-16T14:52:14.043Z,7.80
2019-02-16T14:57:17.347Z,7.23
2019-02-16T15:02:21.213Z,6.97
2019-02-16T15:07:24.547Z,7.63
2019-02-16T15:12:29.710Z,7.60
2019-02-16T15:17:32.995Z,6.90
2019-02-16T15:22:36.309Z,7.87
2019-02-16T15:27:39.864Z,8.43
2019-02-16T15:32:43.169Z,8.37
2019-02-16T15:37:46.463Z,8.87
2019-02-16T15:42:49.813Z,8.77
2019-02-16T15:47:53.389Z,9.07
2019-02-16T15:52:59.645Z,9.67
2019-02-16T15:58:02.946Z,8.77
2019-02-16T16:03:06.481Z,9.53
2019-02-16T16:08:29.465Z,9.17
2019-02-16T16:13:50.538Z,8.77
2019-02-16T16:18:55.720Z,9.53
2019-02-16T16:24:17.460Z,9.27
2019-02-16T16:29:40.035Z,10.33
2019-02-16T16:34:44.964Z,8.67
2019-02-16T16:39:55.588Z,10.00
2019-02-16T16:45:00.527Z,11.07
2019-02-16T16:50:22.052Z,9.53
2019-02-16T16:55:32.899Z,9.17
2019-02-16T17:00:50.259Z,8.87
2019-02-16T17:05:55.429Z,11.83
2019-02-16T17:11:00.602Z,13.00
2019-02-16T17:16:11.995Z,10.27
2019-02-16T17:21:31.975Z,9.63
2019-02-16T17:26:38.023Z,11.80
2019-02-16T17:31:43.109Z,12.27
2019-02-16T17:37:04.511Z,12.03
2019-02-16T17:42:12.276Z,12.33
2019-02-16T17:47:33.347Z,12.93
2019-02-16T17:52:44.197Z,13.27
2019-02-16T17:57:49.145Z,14.03
2019-02-16T18:02:56.768Z,15.03
2019-02-16T18:08:10.703Z,15.13
2019-02-16T18:13:18.832Z,15.73
2019-02-16T18:18:23.764Z,15.50
2019-02-16T18:23:37.874Z,14.90
2019-02-16T18:28:57.242Z,15.10
2019-02-16T18:34:15.018Z,20.30
2019-02-16T18:39:20.182Z,23.47
2019-02-16T18:44:25.146Z,28.57
2019-02-16T18:49:45.083Z,28.37
2019-02-16T18:55:11.015Z,21.00
2019-02-16T19:00:23.779Z,20.97
2019-02-16T19:05:28.931Z,18.50
2019-02-16T19:10:33.858Z,18.57
2019-02-16T19:15:44.762Z,17.83
2019-02-16T19:21:07.557Z,15.93
2019-02-16T19:26:12.498Z,14.67
2019-02-16T19:31:17.667Z,12.50
2019-02-16T19:36:25.254Z,12.93
2019-02-16T19:41:30.416Z,12.77
2019-02-16T19:46:41.209Z,13.47
2019-02-16T19:51:46.388Z,13.30
2019-02-16T19:57:00.582Z,12.60
2019-02-16T20:02:08.487Z,12.73
2019-02-16T20:07:19.085Z,12.80
2019-02-16T20:12:39.343Z,11.47
2019-02-16T20:18:01.331Z,12.83
2019-02-16T20:23:06.494Z,11.90
2019-02-16T20:28:31.195Z,12.70
2019-02-16T20:33:37.694Z,13.00
2019-02-16T20:38:43.617Z,13.03
2019-02-16T20:43:54.547Z,13.60
2019-02-16T20:49:14.917Z,12.43
2019-02-16T20:54:29.062Z,11.73
2019-02-16T20:59:35.524Z,13.27
2019-02-16T21:04:48.567Z,11.53
2019-02-16T21:09:56.395Z,11.40
2019-02-16T21:15:17.248Z,13.00
2019-02-16T21:20:38.806Z,12.83
2019-02-16T21:25:58.979Z,12.97
2019-02-16T21:31:10.223Z,12.43
2019-02-16T21:36:18.790Z,12.13
2019-02-16T21:41:32.893Z,12.37
2019-02-16T21:46:42.163Z,14.03
2019-02-16T21:51:52.763Z,15.17
2019-02-16T21:57:00.085Z,13.90
2019-02-16T22:02:15.685Z,14.07
2019-02-16T22:07:26.888Z,15.53
2019-02-16T22:12:34.474Z,13.80
2019-02-16T22:17:37.955Z,13.43
2019-02-16T22:22:41.250Z,13.63
2019-02-16T22:27:44.601Z,12.73
2019-02-16T22:32:51.189Z,12.97
2019-02-16T22:37:54.484Z,13.83
2019-02-16T22:42:58.027Z,13.50
2019-02-16T22:48:04.302Z,12.97
2019-02-16T22:53:08.717Z,14.20
2019-02-16T22:58:14.861Z,13.20
2019-02-16T23:03:21.106Z,13.63
2019-02-16T23:08:24.654Z,14.73
2019-02-16T23:13:28.181Z,13.10
2019-02-16T23:18:31.731Z,13.57
2019-02-16T23:23:36.729Z,14.37
2019-02-16T23:28:43.755Z,17.20
2019-02-16T23:33:47.052Z,19.17
2019-02-16T23:38:50.342Z,17.93
2019-02-16T23:43:53.637Z,17.67
2019-02-16T23:48:57.169Z,16.80
2019-02-16T23:54:00.700Z,16.87
2019-02-16T23:59:04.063Z,17.07
